Time,TemperatureF,DewpointF,PressureIn,WindDirection,WindDirectionDegrees,WindSpeedMPH,WindSpeedGustMPH,Humidity,HourlyPrecipIn,Conditions,Clouds,dailyrainin,SoftwareType,DateUTC
2013-07-05 00:01:00,72.0,43.0,-100.00,South,190,5.0,11.0,35,0.00,,,0.00,,2013-07-05 04:01:00,
2013-07-05 00:11:00,72.0,43.0,-100.00,South,190,5.0,11.0,35,0.00,,,0.00,,2013-07-05 04:11:00,
2013-07-05 00:22:00,72.0,43.0,-100.00,South,190,5.0,11.0,35,0.00,,,0.00,,2013-07-05 04:22:00,
2013-07-05 00:33:00,72.0,43.0,-100.00,South,190,5.0,11.0,35,0.00,,,0.00,,2013-07-05 04:33:00,
2013-07-05 00:40:00,71.0,43.0,-100.00,SSW,199,5.0,12.0,36,0.00,,,0.00,,2013-07-05 04:40:00,
2013-07-05 01:12:00,71.0,43.0,-100.00,SSW,199,5.0,12.0,36,0.00,,,0.00,,2013-07-05 05:12:00,
2013-07-05 01:22:00,71.0,43.0,-100.00,SSW,199,5.0,12.0,36,0.00,,,0.00,,2013-07-05 05:22:00,
2013-07-05 01:33:00,71.0,43.0,-100.00,SSW,199,5.0,12.0,36,0.00,,,0.00,,2013-07-05 05:33:00,
2013-07-05 01:40:00,71.0,43.0,-100.00,SSW,193,5.0,13.0,36,0.00,,,0.00,,2013-07-05 05:40:00,
2013-07-05 02:13:00,71.0,43.0,-100.00,SSW,193,5.0,13.0,36,0.00,,,0.00,,2013-07-05 06:13:00,
2013-07-05 02:23:00,71.0,43.0,-100.00,SSW,193,5.0,13.0,36,0.00,,,0.00,,2013-07-05 06:23:00,
2013-07-05 02:34:00,71.0,43.0,-100.00,SSW,193,5.0,13.0,36,0.00,,,0.00,,2013-07-05 06:34:00,
2013-07-05 02:40:00,70.0,45.0,-100.00,WSW,258,2.0,10.0,40,0.00,,,0.00,,2013-07-05 06:40:00,
2013-07-05 03:12:00,70.0,45.0,-100.00,WSW,258,2.0,10.0,40,0.00,,,0.00,,2013-07-05 07:12:00,
2013-07-05 03:23:00,70.0,45.0,-100.00,WSW,258,2.0,10.0,40,0.00,,,0.00,,2013-07-05 07:23:00,
2013-07-05 03:34:00,70.0,45.0,-100.00,WSW,258,2.0,10.0,40,0.00,,,0.00,,2013-07-05 07:34:00,
2013-07-05 04:40:00,59.0,55.0,-100.00,SSE,161,4.0,7.0,86,0.00,,,0.00,,2013-07-05 08:40:00,
2013-07-05 05:15:00,59.0,55.0,-100.00,SSE,161,4.0,7.0,86,0.00,,,0.00,,2013-07-05 09:15:00,
2013-07-05 05:25:00,59.0,55.0,-100.00,SSE,161,4.0,7.0,86,0.00,,,0.00,,2013-07-05 09:25:00,
2013-07-05 05:37:00,59.0,55.0,-100.00,SSE,161,4.0,7.0,86,0.00,,,0.00,,2013-07-05 09:37:00,
2013-07-05 05:40:00,60.0,52.0,-100.00,WSW,243,5.0,8.0,75,0.00,,,0.00,,2013-07-05 09:40:00,
2013-07-05 06:25:00,60.0,52.0,-100.00,WSW,243,5.0,8.0,75,0.00,,,0.00,,2013-07-05 10:25:00,
2013-07-05 06:35:00,60.0,52.0,-100.00,WSW,243,5.0,8.0,75,0.00,,,0.00,,2013-07-05 10:35:00,
2013-07-05 06:40:00,59.0,51.0,-100.00,WNW,282,2.0,7.0,74,0.00,,,0.00,,2013-07-05 10:40:00,
2013-07-05 07:16:00,59.0,51.0,-100.00,WNW,282,2.0,7.0,74,0.00,,,0.00,,2013-07-05 11:16:00,
2013-07-05 07:23:00,59.0,51.0,-100.00,WNW,282,2.0,7.0,74,0.00,,,0.00,,2013-07-05 11:23:00,
2013-07-05 07:37:00,59.0,51.0,-100.00,WNW,282,2.0,7.0,74,0.00,,,0.00,,2013-07-05 11:37:00,
2013-07-05 07:40:00,59.0,52.0,-100.00,WNW,303,2.0,4.0,78,0.00,,,0.00,,2013-07-05 11:40:00,
2013-07-05 08:15:00,59.0,52.0,-100.00,WNW,303,2.0,4.0,78,0.00,,,0.00,,2013-07-05 12:15:00,
2013-07-05 08:24:00,59.0,52.0,-100.00,WNW,303,2.0,4.0,78,0.00,,,0.00,,2013-07-05 12:24:00,
2013-07-05 08:36:00,59.0,52.0,-100.00,WNW,303,2.0,4.0,78,0.00,,,0.00,,2013-07-05 12:36:00,
2013-07-05 08:40:00,59.0,52.0,-100.00,WNW,298,0.0,3.0,77,0.00,,,0.00,,2013-07-05 12:40:00,
2013-07-05 09:13:00,59.0,52.0,-100.00,WNW,298,0.0,3.0,77,0.00,,,0.00,,2013-07-05 13:13:00,
2013-07-05 09:24:00,59.0,52.0,-100.00,WNW,298,0.0,3.0,77,0.00,,,0.00,,2013-07-05 13:24:00,
2013-07-05 09:38:00,59.0,52.0,-100.00,WNW,298,0.0,3.0,77,0.00,,,0.00,,2013-07-05 13:38:00,
2013-07-05 09:40:00,61.0,52.0,-100.00,NNW,328,3.0,5.0,71,0.00,,,0.00,,2013-07-05 13:40:00,
2013-07-05 10:15:00,61.0,52.0,-100.00,NNW,328,3.0,5.0,71,0.00,,,0.00,,2013-07-05 14:15:00,
2013-07-05 10:26:00,61.0,52.0,-100.00,NNW,328,3.0,5.0,71,0.00,,,0.00,,2013-07-05 14:26:00,
2013-07-05 10:36:00,61.0,52.0,-100.00,NNW,328,3.0,5.0,71,0.00,,,0.00,,2013-07-05 14:36:00,
2013-07-05 10:40:00,71.0,50.0,-100.00,North,7,1.0,4.0,48,0.00,,,0.00,,2013-07-05 14:40:00,
2013-07-05 11:06:00,71.0,50.0,-100.00,North,7,1.0,4.0,48,0.00,,,0.00,,2013-07-05 15:06:00,
2013-07-05 11:15:00,71.0,50.0,-100.00,North,7,1.0,4.0,48,0.00,,,0.00,,2013-07-05 15:15:00,
2013-07-05 11:24:00,71.0,50.0,-100.00,North,7,1.0,4.0,48,0.00,,,0.00,,2013-07-05 15:24:00,
2013-07-05 11:33:00,71.0,50.0,-100.00,North,7,1.0,4.0,48,0.00,,,0.00,,2013-07-05 15:33:00,
2013-07-05 11:40:00,74.0,52.0,-100.00,East,92,3.0,7.0,46,0.00,,,0.00,,2013-07-05 15:40:00,
2013-07-05 12:11:00,74.0,52.0,-100.00,East,92,3.0,7.0,46,0.00,,,0.00,,2013-07-05 16:11:00,
2013-07-05 12:22:00,74.0,52.0,-100.00,East,92,3.0,7.0,46,0.00,,,0.00,,2013-07-05 16:22:00,
2013-07-05 12:33:00,74.0,52.0,-100.00,East,92,3.0,7.0,46,0.00,,,0.00,,2013-07-05 16:33:00,
2013-07-05 12:40:00,77.0,52.0,-100.00,SE,142,3.0,7.0,42,0.00,,,0.00,,2013-07-05 16:40:00,
2013-07-05 13:12:00,77.0,52.0,-100.00,SE,142,3.0,7.0,42,0.00,,,0.00,,2013-07-05 17:12:00,
2013-07-05 13:22:00,77.0,52.0,-100.00,SE,142,3.0,7.0,42,0.00,,,0.00,,2013-07-05 17:22:00,
2013-07-05 13:33:00,77.0,52.0,-100.00,SE,142,3.0,7.0,42,0.00,,,0.00,,2013-07-05 17:33:00,
2013-07-05 13:40:00,81.0,51.0,-100.00,ESE,106,4.0,9.0,35,0.00,,,0.00,,2013-07-05 17:40:00,
2013-07-05 14:11:00,81.0,51.0,-100.00,ESE,106,4.0,9.0,35,0.00,,,0.00,,2013-07-05 18:11:00,
2013-07-05 14:22:00,81.0,51.0,-100.00,ESE,106,4.0,9.0,35,0.00,,,0.00,,2013-07-05 18:22:00,
2013-07-05 14:33:00,81.0,51.0,-100.00,ESE,106,4.0,9.0,35,0.00,,,0.00,,2013-07-05 18:33:00,
2013-07-05 14:40:00,84.0,51.0,-100.00,SE,131,4.0,11.0,32,0.00,,,0.00,,2013-07-05 18:40:00,
2013-07-05 15:12:00,84.0,51.0,-100.00,SE,131,4.0,11.0,32,0.00,,,0.00,,2013-07-05 19:12:00,
2013-07-05 15:22:00,84.0,51.0,-100.00,SE,131,4.0,11.0,32,0.00,,,0.00,,2013-07-05 19:22:00,
2013-07-05 15:34:00,84.0,51.0,-100.00,SE,131,4.0,11.0,32,0.00,,,0.00,,2013-07-05 19:34:00,
2013-07-05 15:40:00,84.0,49.0,-100.00,SSE,158,5.0,13.0,30,0.00,,,0.00,,2013-07-05 19:40:00,
2013-07-05 16:11:00,84.0,49.0,-100.00,SSE,158,5.0,13.0,30,0.00,,,0.00,,2013-07-05 20:11:00,
2013-07-05 16:22:00,84.0,49.0,-100.00,SSE,158,5.0,13.0,30,0.00,,,0.00,,2013-07-05 20:22:00,
2013-07-05 16:33:00,84.0,49.0,-100.00,SSE,158,5.0,13.0,30,0.00,,,0.00,,2013-07-05 20:33:00,
2013-07-05 16:40:00,82.0,53.0,-100.00,SSW,195,7.0,13.0,37,0.00,,,0.00,,2013-07-05 20:40:00,
2013-07-05 17:11:00,82.0,53.0,-100.00,SSW,195,7.0,13.0,37,0.00,,,0.00,,2013-07-05 21:11:00,
2013-07-05 17:22:00,82.0,53.0,-100.00,SSW,195,7.0,13.0,37,0.00,,,0.00,,2013-07-05 21:22:00,
2013-07-05 17:34:00,82.0,53.0,-100.00,SSW,195,7.0,13.0,37,0.00,,,0.00,,2013-07-05 21:34:00,
2013-07-05 17:40:00,81.0,47.0,-100.00,SSW,201,6.0,21.0,31,0.00,,,0.00,,2013-07-05 21:40:00,
2013-07-05 18:01:00,81.0,47.0,-100.00,SSW,201,6.0,21.0,31,0.00,,,0.00,,2013-07-05 22:01:00,
2013-07-05 18:11:00,81.0,47.0,-100.00,SSW,201,6.0,21.0,31,0.00,,,0.00,,2013-07-05 22:11:00,
2013-07-05 18:22:00,81.0,47.0,-100.00,SSW,201,6.0,21.0,31,0.00,,,0.00,,2013-07-05 22:22:00,
2013-07-05 18:34:00,81.0,47.0,-100.00,SSW,201,6.0,21.0,31,0.00,,,0.00,,2013-07-05 22:34:00,
2013-07-05 18:40:00,81.0,47.0,-100.00,South,191,6.0,13.0,30,0.00,,,0.00,,2013-07-05 22:40:00,
2013-07-05 19:11:00,81.0,47.0,-100.00,South,191,6.0,13.0,30,0.00,,,0.00,,2013-07-05 23:11:00,
2013-07-05 19:23:00,81.0,47.0,-100.00,South,191,6.0,13.0,30,0.00,,,0.00,,2013-07-05 23:23:00,
2013-07-05 19:32:00,81.0,47.0,-100.00,South,191,6.0,13.0,30,0.00,,,0.00,,2013-07-05 23:32:00,
2013-07-05 19:40:00,77.0,46.0,-100.00,NE,50,8.0,20.0,34,0.00,,,0.00,,2013-07-05 23:40:00,
2013-07-05 20:01:00,77.0,46.0,-100.00,NE,50,8.0,20.0,34,0.00,,,0.00,,2013-07-06 00:01:00,
2013-07-05 20:11:00,77.0,46.0,-100.00,NE,50,8.0,20.0,34,0.00,,,0.00,,2013-07-06 00:11:00,
2013-07-05 20:22:00,77.0,46.0,-100.00,NE,50,8.0,20.0,34,0.00,,,0.00,,2013-07-06 00:22:00,
2013-07-05 20:33:00,77.0,46.0,-100.00,NE,50,8.0,20.0,34,0.00,,,0.00,,2013-07-06 00:33:00,
2013-07-05 21:40:00,61.0,56.0,-100.00,West,277,2.0,18.0,84,0.00,,,0.00,,2013-07-06 01:40:00,
2013-07-05 22:02:00,61.0,56.0,-100.00,West,277,2.0,18.0,84,0.00,,,0.00,,2013-07-06 02:02:00,
2013-07-05 22:12:00,61.0,56.0,-100.00,West,277,2.0,18.0,84,0.00,,,0.00,,2013-07-06 02:12:00,
2013-07-05 22:22:00,61.0,56.0,-100.00,West,277,2.0,18.0,84,0.00,,,0.00,,2013-07-06 02:22:00,
2013-07-05 22:33:00,61.0,56.0,-100.00,West,277,2.0,18.0,84,0.00,,,0.00,,2013-07-06 02:33:00,
2013-07-05 22:40:00,60.0,54.0,-100.00,West,276,3.0,6.0,82,0.00,,,0.00,,2013-07-06 02:40:00,
2013-07-05 23:12:00,60.0,54.0,-100.00,West,276,3.0,6.0,82,0.00,,,0.00,,2013-07-06 03:12:00,
2013-07-05 23:22:00,60.0,54.0,-100.00,West,276,3.0,6.0,82,0.00,,,0.00,,2013-07-06 03:22:00,
2013-07-05 23:34:00,60.0,54.0,-100.00,West,276,3.0,6.0,82,0.00,,,0.00,,2013-07-06 03:34:00,
2013-07-05 23:40:00,60.0,54.0,-100.00,WNW,291,2.0,4.0,81,0.00,,,0.00,,2013-07-06 03:40:00,